createdAt,value
2017-09-19T00:01:21.328Z,3.27
2017-09-19T00:03:48.935Z,3.87
2017-09-19T00:06:16.632Z,3.00
2017-09-19T00:08:44.239Z,5.50
2017-09-19T00:11:11.864Z,2.43
2017-09-19T00:13:39.609Z,3.70
2017-09-19T00:16:07.280Z,3.90
2017-09-19T00:18:34.952Z,3.77
2017-09-19T00:21:02.619Z,3.20
2017-09-19T00:23:30.245Z,3.33
2017-09-19T00:25:57.869Z,2.47
2017-09-19T00:28:26.322Z,8.60
2017-09-19T00:30:54.005Z,3.60
2017-09-19T00:33:22.462Z,5.90
2017-09-19T00:35:50.140Z,3.07
2017-09-19T00:38:17.801Z,5.87
2017-09-19T00:40:45.475Z,2.80
2017-09-19T00:43:13.987Z,3.70
2017-09-19T00:45:41.631Z,4.33
2017-09-19T00:48:09.408Z,3.90
2017-09-19T00:50:37.107Z,3.13
2017-09-19T00:53:04.763Z,3.23
2017-09-19T00:55:32.444Z,3.00
2017-09-19T00:58:00.175Z,5.43
2017-09-19T01:00:27.856Z,3.10
2017-09-19T01:02:55.527Z,2.40
2017-09-19T01:05:23.278Z,2.63
2017-09-19T01:07:50.920Z,3.10
2017-09-19T01:10:18.573Z,2.53
2017-09-19T01:12:46.400Z,3.30
2017-09-19T01:15:14.812Z,4.33
2017-09-19T01:17:42.496Z,2.60
2017-09-19T01:20:10.806Z,3.40
2017-09-19T01:22:39.287Z,4.23
2017-09-19T01:25:07.770Z,2.83
2017-09-19T01:27:36.300Z,2.77
2017-09-19T01:30:03.971Z,4.73
2017-09-19T01:32:31.664Z,11.50
2017-09-19T01:35:00.101Z,3.83
2017-09-19T01:37:28.570Z,2.97
2017-09-19T01:39:56.168Z,3.30
2017-09-19T01:42:23.896Z,3.90
2017-09-19T01:44:51.510Z,3.77
2017-09-19T01:47:19.883Z,3.40
2017-09-19T01:49:47.580Z,4.77
2017-09-19T01:52:15.211Z,3.30
2017-09-19T01:54:42.895Z,4.77
2017-09-19T01:57:10.574Z,4.33
2017-09-19T01:59:38.192Z,3.27
2017-09-19T02:02:06.571Z,2.60
2017-09-19T02:04:35.064Z,3.93
2017-09-19T02:07:02.778Z,3.30
2017-09-19T02:09:30.410Z,3.20
2017-09-19T02:11:58.080Z,3.80
2017-09-19T02:14:25.702Z,3.27
2017-09-19T02:16:53.342Z,2.80
2017-09-19T02:19:21.769Z,3.80
2017-09-19T02:21:49.393Z,4.03
2017-09-19T02:24:17.031Z,4.73
2017-09-19T02:26:44.733Z,3.80
2017-09-19T02:29:13.073Z,5.67
2017-09-19T02:31:41.511Z,4.93
2017-09-19T02:34:09.276Z,3.53
2017-09-19T02:36:36.951Z,6.10
2017-09-19T02:39:04.640Z,3.93
2017-09-19T02:41:33.061Z,5.20
2017-09-19T02:44:00.672Z,3.67
2017-09-19T02:46:29.063Z,4.77
2017-09-19T02:48:56.736Z,4.50
2017-09-19T02:51:24.396Z,4.63
2017-09-19T02:53:52.016Z,4.53
2017-09-19T02:56:19.697Z,7.00
2017-09-19T02:58:48.087Z,6.30
2017-09-19T03:01:15.813Z,4.63
2017-09-19T03:03:43.474Z,4.20
2017-09-19T03:06:11.100Z,6.63
2017-09-19T03:08:38.722Z,5.50
2017-09-19T03:11:06.439Z,6.00
2017-09-19T03:13:34.077Z,7.30
2017-09-19T03:16:01.724Z,7.40
2017-09-19T03:18:29.397Z,6.73
2017-09-19T03:20:57.030Z,5.37
2017-09-19T03:23:24.663Z,7.40
2017-09-19T03:25:53.128Z,7.33
2017-09-19T03:28:20.756Z,7.07
2017-09-19T03:30:48.374Z,5.50
2017-09-19T03:33:16.812Z,7.33
2017-09-19T03:35:44.454Z,6.40
2017-09-19T03:38:12.056Z,7.30
2017-09-19T03:40:39.773Z,5.17
2017-09-19T03:43:07.408Z,9.70
2017-09-19T03:45:35.027Z,8.63
2017-09-19T03:48:02.695Z,7.47
2017-09-19T03:50:30.315Z,8.90
2017-09-19T03:52:57.925Z,7.17
2017-09-19T03:55:26.408Z,10.10
2017-09-19T03:57:54.815Z,14.53
2017-09-19T04:00:22.488Z,6.60
2017-09-19T04:02:50.123Z,8.40
2017-09-19T04:05:18.567Z,12.73
2017-09-19T04:07:46.224Z,7.97
2017-09-19T04:10:13.899Z,7.67
2017-09-19T04:12:42.263Z,7.77
2017-09-19T04:15:10.716Z,9.93
2017-09-19T04:17:38.403Z,8.47
2017-09-19T04:20:06.791Z,8.83
2017-09-19T04:22:35.204Z,10.83
2017-09-19T04:25:02.888Z,7.07
2017-09-19T04:27:30.728Z,7.90
2017-09-19T04:29:58.376Z,6.33
2017-09-19T04:32:26.884Z,7.53
2017-09-19T04:34:54.599Z,11.00
2017-09-19T04:37:23.015Z,8.87
2017-09-19T04:39:50.668Z,11.83
2017-09-19T04:42:18.351Z,8.33
2017-09-19T04:44:46.108Z,5.70
2017-09-19T04:47:13.786Z,6.67
2017-09-19T04:49:41.427Z,5.87
2017-09-19T04:52:09.074Z,6.30
2017-09-19T04:54:37.439Z,6.23
2017-09-19T04:57:05.085Z,7.17
2017-09-19T04:59:32.723Z,6.50
2017-09-19T05:02:00.411Z,6.13
2017-09-19T05:04:28.019Z,6.97
2017-09-19T05:06:55.631Z,6.10
2017-09-19T05:09:23.274Z,14.53
2017-09-19T05:11:51.685Z,7.23
2017-09-19T05:14:19.395Z,8.20
2017-09-19T05:16:47.042Z,8.87
2017-09-19T05:19:14.706Z,8.27
2017-09-19T05:21:42.331Z,8.67
2017-09-19T05:24:09.969Z,11.33
2017-09-19T05:26:37.610Z,13.53
2017-09-19T05:29:05.983Z,13.30
2017-09-19T05:31:35.158Z,13.10
2017-09-19T05:34:02.778Z,15.63
2017-09-19T05:36:30.567Z,16.47
2017-09-19T05:38:58.194Z,14.80
2017-09-19T05:41:25.881Z,15.57
2017-09-19T05:43:53.555Z,18.97
2017-09-19T05:46:21.212Z,16.70
2017-09-19T05:48:48.856Z,14.67
2017-09-19T05:51:16.472Z,15.37
2017-09-19T05:53:44.912Z,16.60
2017-09-19T05:56:12.594Z,16.27
2017-09-19T05:58:40.210Z,16.93
2017-09-19T06:01:07.851Z,14.00
2017-09-19T06:03:35.473Z,18.47
2017-09-19T06:06:03.124Z,16.13
2017-09-19T06:08:30.822Z,14.33
2017-09-19T06:10:58.517Z,18.30
2017-09-19T06:13:26.171Z,14.87
2017-09-19T06:15:53.798Z,15.43
2017-09-19T06:18:22.203Z,14.63
2017-09-19T06:20:49.843Z,22.70
2017-09-19T06:23:17.490Z,21.63
2017-09-19T06:25:45.912Z,18.80
2017-09-19T06:28:13.583Z,17.97
2017-09-19T06:30:41.249Z,13.47
2017-09-19T06:33:08.911Z,16.77
2017-09-19T06:35:36.699Z,16.30
2017-09-19T06:38:05.119Z,15.97
2017-09-19T06:40:32.756Z,15.73
2017-09-19T06:43:01.143Z,19.13
2017-09-19T06:45:28.951Z,15.10
2017-09-19T06:47:56.759Z,15.17
2017-09-19T06:50:25.157Z,19.00
2017-09-19T06:52:52.886Z,19.17
2017-09-19T06:55:21.278Z,15.20
2017-09-19T06:57:49.697Z,18.27
2017-09-19T07:00:17.319Z,16.73
2017-09-19T07:02:44.982Z,18.10
2017-09-19T07:05:12.643Z,15.67
2017-09-19T07:07:40.285Z,16.77
2017-09-19T07:10:08.682Z,15.87
2017-09-19T07:12:36.338Z,13.70
2017-09-19T07:15:04.019Z,12.83
2017-09-19T07:17:31.681Z,14.60
2017-09-19T07:19:59.368Z,11.60
2017-09-19T07:22:27.036Z,13.07
2017-09-19T07:24:54.690Z,12.63
2017-09-19T07:27:22.336Z,11.80
2017-09-19T07:29:49.997Z,16.23
2017-09-19T07:32:17.687Z,18.07
2017-09-19T07:34:45.339Z,13.57
2017-09-19T07:37:13.016Z,12.40
2017-09-19T07:39:41.460Z,10.03
2017-09-19T07:42:09.150Z,14.33
2017-09-19T07:44:36.795Z,13.17
2017-09-19T07:47:04.407Z,13.80
2017-09-19T07:49:32.100Z,12.07
2017-09-19T07:51:59.720Z,11.90
2017-09-19T07:54:27.337Z,15.43
2017-09-19T07:56:54.979Z,12.57
2017-09-19T07:59:22.642Z,11.77
2017-09-19T08:01:50.296Z,11.60
2017-09-19T08:04:17.924Z,13.10
2017-09-19T08:06:45.642Z,12.30
2017-09-19T08:09:14.077Z,11.67
2017-09-19T08:11:41.698Z,14.63
2017-09-19T08:14:09.334Z,12.37
2017-09-19T08:16:36.962Z,11.20
2017-09-19T08:19:04.659Z,10.77
2017-09-19T08:21:32.287Z,12.60
2017-09-19T08:24:00.726Z,10.23
2017-09-19T08:26:29.171Z,15.03
2017-09-19T08:28:56.808Z,8.93
2017-09-19T08:31:24.447Z,8.43
2017-09-19T08:33:52.076Z,10.10
2017-09-19T08:36:20.687Z,12.97
2017-09-19T08:38:48.582Z,12.60
2017-09-19T08:41:16.186Z,9.13
2017-09-19T08:43:44.594Z,7.10
2017-09-19T08:46:12.196Z,9.23
2017-09-19T08:48:39.867Z,7.90
2017-09-19T08:51:07.535Z,8.77
2017-09-19T08:53:35.977Z,8.70
2017-09-19T08:56:03.626Z,8.37
2017-09-19T08:58:31.236Z,7.47
2017-09-19T09:00:59.655Z,9.07
2017-09-19T09:03:27.266Z,8.03
2017-09-19T09:05:54.956Z,10.47
2017-09-19T09:08:22.578Z,10.90
2017-09-19T09:10:50.257Z,11.73
2017-09-19T09:13:18.656Z,19.53
2017-09-19T09:15:47.235Z,8.23
2017-09-19T09:18:14.875Z,8.87
2017-09-19T09:20:43.287Z,6.93
2017-09-19T09:23:11.086Z,6.90
2017-09-19T09:25:38.727Z,7.70
2017-09-19T09:28:06.603Z,8.60
2017-09-19T09:30:34.208Z,7.80
2017-09-19T09:33:02.591Z,8.93
2017-09-19T09:35:30.294Z,7.30
2017-09-19T09:37:57.932Z,6.03
2017-09-19T09:40:25.562Z,6.37
2017-09-19T09:42:54.014Z,9.20
2017-09-19T09:45:21.715Z,6.20
2017-09-19T09:47:50.091Z,6.73
2017-09-19T09:50:18.459Z,5.47
2017-09-19T09:52:46.103Z,5.53
2017-09-19T09:55:13.724Z,6.20
2017-09-19T09:57:41.359Z,6.53
2017-09-19T10:00:08.990Z,7.90
2017-09-19T10:02:37.435Z,9.03
2017-09-19T10:05:05.055Z,5.77
2017-09-19T10:07:32.679Z,4.73
2017-09-19T10:10:00.387Z,5.63
2017-09-19T10:12:27.990Z,5.40
2017-09-19T10:14:55.695Z,6.67
2017-09-19T10:17:23.306Z,7.90
2017-09-19T10:19:50.980Z,7.20
2017-09-19T10:22:18.632Z,6.93
2017-09-19T10:24:46.254Z,5.30
2017-09-19T10:27:13.914Z,4.93
2017-09-19T10:29:41.523Z,9.50
2017-09-19T10:32:09.182Z,5.93
2017-09-19T10:34:36.871Z,5.93
2017-09-19T10:37:04.531Z,4.33
2017-09-19T10:39:32.159Z,4.57
2017-09-19T10:42:00.740Z,4.50
2017-09-19T10:44:28.423Z,5.17
2017-09-19T10:46:56.907Z,6.37
2017-09-19T10:49:24.583Z,3.93
2017-09-19T10:51:52.180Z,7.20
2017-09-19T10:54:19.873Z,5.07
2017-09-19T10:56:47.571Z,4.70
2017-09-19T10:59:15.323Z,4.90
2017-09-19T11:01:42.930Z,4.90
2017-09-19T11:04:10.554Z,5.83
2017-09-19T11:06:38.202Z,5.07
2017-09-19T11:09:05.844Z,5.00
2017-09-19T11:11:34.271Z,5.50
2017-09-19T11:14:02.022Z,5.30
2017-09-19T11:16:29.663Z,3.10
2017-09-19T11:18:57.307Z,4.87
2017-09-19T11:21:25.680Z,4.47
2017-09-19T11:23:53.359Z,4.57
2017-09-19T11:26:21.075Z,4.53
2017-09-19T11:28:48.695Z,3.70
2017-09-19T11:31:16.385Z,3.80
2017-09-19T11:33:43.999Z,5.03
2017-09-19T11:36:11.658Z,3.63
2017-09-19T11:38:39.318Z,4.27
2017-09-19T11:41:06.982Z,3.57
2017-09-19T11:43:34.615Z,4.30
2017-09-19T11:46:03.000Z,4.50
2017-09-19T11:48:31.417Z,4.00
2017-09-19T11:50:59.106Z,7.10
2017-09-19T11:53:26.767Z,5.30
2017-09-19T11:55:55.195Z,5.77
2017-09-19T11:58:23.003Z,7.70
2017-09-19T12:00:50.676Z,4.60
2017-09-19T12:03:18.365Z,4.80
2017-09-19T12:05:46.768Z,4.10
2017-09-19T12:08:14.387Z,6.50
2017-09-19T12:10:42.895Z,9.70
2017-09-19T12:13:10.525Z,6.50
2017-09-19T12:15:38.907Z,4.50
2017-09-19T12:18:07.315Z,6.27
2017-09-19T12:20:34.944Z,4.57
2017-09-19T12:23:03.347Z,4.53
2017-09-19T12:25:30.949Z,5.50
2017-09-19T12:27:58.754Z,4.10
2017-09-19T12:30:27.156Z,5.57
2017-09-19T12:32:54.769Z,4.60
2017-09-19T12:35:22.582Z,5.00
2017-09-19T12:37:50.186Z,5.03
2017-09-19T12:40:17.835Z,4.30
2017-09-19T12:42:45.528Z,7.80
2017-09-19T12:45:13.947Z,5.80
2017-09-19T12:47:41.554Z,4.77
2017-09-19T12:50:09.237Z,3.77
2017-09-19T12:52:36.911Z,5.63
2017-09-19T12:55:04.563Z,4.00
2017-09-19T12:57:32.337Z,5.50
2017-09-19T13:00:00.026Z,4.73
2017-09-19T13:02:27.643Z,8.63
2017-09-19T13:04:55.296Z,5.07
2017-09-19T13:07:23.704Z,4.20
2017-09-19T13:09:51.357Z,5.47
2017-09-19T13:12:19.760Z,5.60
2017-09-19T13:14:47.377Z,5.70
2017-09-19T13:17:15.788Z,4.93
2017-09-19T13:19:43.417Z,4.60
2017-09-19T13:22:11.119Z,6.27
2017-09-19T13:24:38.751Z,5.70
2017-09-19T13:27:06.425Z,5.40
2017-09-19T13:29:34.032Z,5.00
2017-09-19T13:32:13.540Z,4.67
2017-09-19T13:34:41.186Z,8.90
2017-09-19T13:37:08.845Z,7.07
2017-09-19T13:39:36.527Z,5.33
2017-09-19T13:42:04.204Z,5.60
2017-09-19T13:44:31.880Z,4.10
2017-09-19T13:47:00.279Z,4.30
2017-09-19T13:49:27.945Z,3.83
2017-09-19T13:51:55.585Z,6.10
2017-09-19T13:54:23.278Z,5.20
2017-09-19T13:56:50.919Z,4.20
2017-09-19T13:59:19.477Z,8.33
2017-09-19T14:01:47.115Z,5.70
2017-09-19T14:04:14.819Z,6.43
2017-09-19T14:06:42.509Z,6.93
2017-09-19T14:09:10.135Z,4.00
2017-09-19T14:11:37.751Z,9.17
2017-09-19T14:14:05.403Z,7.30
2017-09-19T14:16:33.054Z,4.73
2017-09-19T14:19:00.714Z,4.37
2017-09-19T14:21:28.343Z,6.20
2017-09-19T14:23:56.031Z,6.47
2017-09-19T14:26:23.667Z,5.33
2017-09-19T14:28:51.330Z,4.40
2017-09-19T14:31:18.967Z,8.90
2017-09-19T14:33:47.351Z,6.30
2017-09-19T14:36:14.987Z,4.60
2017-09-19T14:38:42.699Z,6.00
2017-09-19T14:41:10.382Z,3.80
2017-09-19T14:43:38.009Z,5.90
2017-09-19T14:46:05.788Z,3.57
2017-09-19T14:48:33.399Z,3.80
2017-09-19T14:51:01.775Z,4.43
2017-09-19T14:53:30.180Z,3.50
2017-09-19T14:55:57.802Z,3.33
2017-09-19T14:58:26.271Z,12.67
2017-09-19T15:00:53.888Z,2.90
2017-09-19T15:03:21.500Z,3.67
2017-09-19T15:05:49.139Z,4.13
2017-09-19T15:08:16.747Z,4.80
2017-09-19T15:10:44.408Z,3.57
2017-09-19T15:13:12.052Z,3.77
2017-09-19T15:15:39.699Z,3.50
2017-09-19T15:18:08.178Z,3.03
2017-09-19T15:20:35.793Z,3.60
2017-09-19T15:23:03.426Z,3.13
2017-09-19T15:25:31.051Z,4.80
2017-09-19T15:27:58.863Z,3.83
2017-09-19T15:30:26.480Z,3.60
2017-09-19T15:32:54.103Z,3.93
2017-09-19T15:35:21.774Z,3.40
2017-09-19T15:37:50.573Z,3.80
2017-09-19T15:40:18.241Z,4.80
2017-09-19T15:42:45.851Z,3.27
2017-09-19T15:45:13.628Z,6.10
2017-09-19T15:47:41.243Z,6.03
2017-09-19T15:50:09.657Z,3.93
2017-09-19T15:52:37.302Z,4.80
2017-09-19T15:55:04.932Z,3.37
2017-09-19T15:57:33.368Z,2.40
2017-09-19T16:00:01.015Z,8.63
2017-09-19T16:02:28.678Z,2.50
2017-09-19T16:04:56.329Z,2.80
2017-09-19T16:07:24.019Z,4.07
2017-09-19T16:09:51.668Z,2.37
2017-09-19T16:12:19.289Z,3.43
2017-09-19T16:14:47.757Z,4.20
2017-09-19T16:17:16.136Z,4.10
2017-09-19T16:19:44.664Z,2.33
2017-09-19T16:22:12.353Z,2.73
2017-09-19T16:24:39.975Z,5.30
2017-09-19T16:27:07.651Z,2.80
2017-09-19T16:29:35.311Z,1.97
2017-09-19T16:32:02.978Z,2.20
2017-09-19T16:34:30.582Z,2.50
2017-09-19T16:36:58.264Z,1.93
2017-09-19T16:39:25.867Z,3.40
2017-09-19T16:41:53.471Z,2.90
2017-09-19T16:44:21.191Z,2.83
2017-09-19T16:46:48.863Z,6.43
2017-09-19T16:49:17.289Z,5.33
2017-09-19T16:51:44.952Z,2.73
2017-09-19T16:54:12.652Z,2.80
2017-09-19T16:56:40.307Z,2.43
2017-09-19T16:59:07.904Z,2.80
2017-09-19T17:01:36.311Z,2.23
2017-09-19T17:04:03.941Z,2.13
2017-09-19T17:06:32.358Z,3.13
2017-09-19T17:08:59.969Z,2.50
2017-09-19T17:11:28.406Z,3.60
2017-09-19T17:13:56.016Z,4.30
2017-09-19T17:16:23.701Z,3.27
2017-09-19T17:18:51.399Z,5.20
2017-09-19T17:21:19.040Z,2.27
2017-09-19T17:23:46.721Z,2.30
2017-09-19T17:26:14.373Z,2.63
2017-09-19T17:28:42.198Z,2.33
2017-09-19T17:31:09.819Z,2.10
2017-09-19T17:33:37.444Z,2.00
2017-09-19T17:36:05.105Z,3.63
2017-09-19T17:38:32.724Z,2.70
2017-09-19T17:41:00.379Z,2.03
2017-09-19T17:43:28.006Z,4.13
2017-09-19T17:45:55.647Z,2.73
2017-09-19T17:48:23.272Z,1.53
2017-09-19T17:50:50.928Z,3.23
2017-09-19T17:53:18.565Z,2.57
2017-09-19T17:55:46.942Z,3.43
2017-09-19T17:58:15.348Z,3.20
2017-09-19T18:00:43.024Z,3.07
2017-09-19T18:03:10.671Z,1.87
2017-09-19T18:05:38.373Z,1.73
2017-09-19T18:08:06.095Z,2.30
2017-09-19T18:10:33.759Z,5.90
2017-09-19T18:13:01.443Z,1.83
2017-09-19T18:15:29.057Z,2.50
2017-09-19T18:17:57.439Z,3.17
2017-09-19T18:20:25.087Z,2.60
2017-09-19T18:22:53.474Z,2.20
2017-09-19T18:25:21.906Z,4.63
2017-09-19T18:27:49.525Z,2.67
2017-09-19T18:30:17.210Z,17.63
2017-09-19T18:32:44.883Z,3.77
2017-09-19T18:35:12.500Z,2.83
2017-09-19T18:37:40.140Z,5.70
2017-09-19T18:40:08.599Z,5.23
2017-09-19T18:42:36.247Z,3.20
2017-09-19T18:45:03.868Z,6.00
2017-09-19T18:47:31.511Z,3.33
2017-09-19T18:49:59.122Z,3.47
2017-09-19T18:52:26.778Z,3.17
2017-09-19T18:54:54.453Z,4.53
2017-09-19T18:57:22.075Z,7.50
2017-09-19T18:59:49.719Z,6.60
2017-09-19T19:02:17.344Z,4.07
2017-09-19T19:04:44.983Z,4.93
2017-09-19T19:07:12.638Z,4.97
2017-09-19T19:09:40.416Z,4.40
2017-09-19T19:12:08.086Z,3.70
2017-09-19T19:14:36.471Z,3.90
2017-09-19T19:17:04.965Z,4.30
2017-09-19T19:19:33.331Z,6.77
2017-09-19T19:22:01.783Z,4.93
2017-09-19T19:24:29.452Z,5.27
2017-09-19T19:26:57.095Z,5.90
2017-09-19T19:29:24.691Z,4.87
2017-09-19T19:31:53.138Z,5.93
2017-09-19T19:34:20.763Z,6.20
2017-09-19T19:36:48.391Z,4.93
2017-09-19T19:39:17.375Z,4.90
2017-09-19T19:41:45.824Z,5.77
2017-09-19T19:44:13.487Z,4.20
2017-09-19T19:46:41.157Z,6.00
2017-09-19T19:49:08.840Z,4.27
2017-09-19T19:51:37.227Z,5.10
2017-09-19T19:54:05.601Z,5.90
2017-09-19T19:56:34.011Z,3.83
2017-09-19T19:59:01.612Z,5.40
2017-09-19T20:01:29.283Z,4.40
2017-09-19T20:03:57.660Z,4.80
2017-09-19T20:06:26.086Z,7.20
2017-09-19T20:08:53.704Z,4.33
2017-09-19T20:11:22.127Z,4.00
2017-09-19T20:13:49.770Z,4.50
2017-09-19T20:16:17.363Z,4.50
2017-09-19T20:18:45.093Z,4.83
2017-09-19T20:21:12.694Z,4.50
2017-09-19T20:23:40.335Z,4.40
2017-09-19T20:26:07.993Z,4.83
2017-09-19T20:28:35.637Z,4.53
2017-09-19T20:31:03.271Z,4.90
2017-09-19T20:33:31.731Z,5.80
2017-09-19T20:35:59.395Z,6.47
2017-09-19T20:38:27.836Z,4.93
2017-09-19T20:40:55.473Z,5.47
2017-09-19T20:43:23.891Z,4.90
2017-09-19T20:45:51.537Z,4.97
2017-09-19T20:48:19.167Z,5.30
2017-09-19T20:50:46.817Z,6.27
2017-09-19T20:53:14.431Z,4.60
2017-09-19T20:55:42.082Z,7.70
2017-09-19T20:58:10.546Z,4.77
2017-09-19T21:00:38.186Z,4.60
2017-09-19T21:03:05.334Z,4.53
2017-09-19T21:05:38.475Z,5.17
2017-09-19T21:08:11.919Z,6.60
2017-09-19T21:10:45.268Z,5.40
2017-09-19T21:13:18.663Z,6.37
2017-09-19T21:15:51.828Z,5.27
2017-09-19T21:18:25.146Z,5.70
2017-09-19T21:20:52.783Z,5.40
2017-09-19T21:23:20.428Z,6.50
2017-09-19T21:25:48.102Z,10.90
2017-09-19T21:28:15.752Z,6.10
2017-09-19T21:30:43.376Z,5.50
2017-09-19T21:33:11.035Z,5.00
2017-09-19T21:35:38.685Z,5.30
2017-09-19T21:38:07.119Z,5.00
2017-09-19T21:40:34.733Z,4.97
2017-09-19T21:43:02.351Z,4.30
2017-09-19T21:45:30.013Z,4.87
2017-09-19T21:47:57.659Z,4.80
2017-09-19T21:50:25.295Z,5.33
2017-09-19T21:52:53.683Z,4.30
2017-09-19T21:55:21.326Z,6.33
2017-09-19T21:57:48.940Z,5.43
2017-09-19T22:00:16.687Z,4.80
2017-09-19T22:02:44.293Z,3.80
2017-09-19T22:05:11.916Z,5.30
2017-09-19T22:07:39.575Z,4.53
2017-09-19T22:10:07.274Z,4.97
2017-09-19T22:12:34.920Z,4.60
2017-09-19T22:15:03.360Z,4.97
2017-09-19T22:17:31.007Z,4.40
2017-09-19T22:19:58.623Z,4.57
2017-09-19T22:22:26.292Z,5.17
2017-09-19T22:24:53.907Z,4.77
2017-09-19T22:27:21.558Z,4.50
2017-09-19T22:29:49.204Z,5.63
2017-09-19T22:32:16.836Z,4.97
2017-09-19T22:34:44.486Z,5.27
2017-09-19T22:37:12.114Z,5.70
2017-09-19T22:39:40.557Z,5.10
2017-09-19T22:42:08.169Z,5.87
2017-09-19T22:44:36.574Z,5.53
2017-09-19T22:47:04.327Z,5.47
2017-09-19T22:49:31.940Z,6.60
2017-09-19T22:51:59.601Z,8.00
2017-09-19T22:54:27.194Z,7.53
2017-09-19T22:56:55.592Z,16.77
2017-09-19T22:59:23.194Z,6.73
2017-09-19T23:01:50.855Z,5.63
2017-09-19T23:04:19.309Z,6.10
2017-09-19T23:06:46.911Z,6.47
2017-09-19T23:09:15.371Z,7.77
2017-09-19T23:11:42.985Z,11.33
2017-09-19T23:14:10.645Z,6.37
2017-09-19T23:16:38.252Z,7.60
2017-09-19T23:19:06.694Z,9.43
2017-09-19T23:21:34.304Z,8.33
2017-09-19T23:24:01.946Z,12.40
2017-09-19T23:26:29.607Z,6.70
2017-09-19T23:28:57.233Z,8.47
2017-09-19T23:31:24.877Z,9.60
2017-09-19T23:33:52.571Z,11.93
2017-09-19T23:36:20.372Z,18.10
2017-09-19T23:38:48.004Z,18.63
2017-09-19T23:41:15.635Z,16.40
2017-09-19T23:43:43.300Z,16.83
2017-09-19T23:46:10.927Z,20.27
2017-09-19T23:48:39.349Z,15.43
2017-09-19T23:51:06.995Z,18.53
2017-09-19T23:53:34.643Z,22.77
2017-09-19T23:56:02.280Z,20.70
2017-09-19T23:58:30.732Z,15.73
